Lancaster, Virginia
Current Conditions -  °F | °C
As of 10:55 AM on Friday 31 Oct 2014 (Local Time) from KW75 Reporting Station
Clear Clear  
Wind Chill: 54°   Ceiling: Unl
Heat Index: 54°   Visibility: 10mi
Dew Point: 44°   Wind: 8mph
Humidity: 71%   Direction: 10°N
Pressure: 29.93"   Gusts: NA
Location:  37.77°N, 76.47°W
Report Text: KW75 311455Z AUTO 01007KT 10SM CLR 12/07 A2993 RMK AO1 T01200069
Loading
Personal Weather Stations






























Interactive Weather Map
Tropical Storm Tracking
New forecast layout! Learn more

10-Day Weather Forecast

Advertisements
Track Severe Weather on mobile